Aviation Digital Data Service (ADDS)

Output produced by METARs form (1910 UTC 28 August 2015)
found at http://www.aviationweather.gov/adds/metars/
 
KDEN 281746Z 2818/2924 36010KT P6SM FEW090 SCT120 
     FM282200 02010KT 6SM FU SCT090 BKN140 
     FM290100 14007KT 5SM FU FEW090 SCT140 
     FM290400 24010KT 4SM FU FEW200 
     FM291800 18013KT P6SM FEW120